Gao, Mali
Current Conditions -  °F | °C
As of 8:00 AM on Monday 24 Nov 2014 (Local Time) from DRRN Reporting Station
Sand / Dust Storm Sand / Dust Storm  
Wind Chill: 77°   Ceiling: Unl
Heat Index: 77°   Visibility: 2.5mi
Dew Point: 32°   Wind: 9mph
Humidity: 19%   Direction: 80°E
Pressure: 29.97"   Gusts: NA
Location:  16.27°N, 0.05°W
Report Text: DRRN 240800Z 08008KT 4000 DU NSC 25/00 Q1015 BECMG 6000
Loading
Personal Weather Stations






























Interactive Weather Map New forecast layout! Learn more

10-Day Weather Forecast

Advertisements
Track Severe Weather on mobile